Time;durP1;ratioP1;P1;durP2;ratioP2;P2;SDS_P1;SDS_P2;PMS_P1;PMS_P2;Temp;Humidity;BMP_temperature;BMP_pressure;BME280_temperature;BME280_humidity;BME280_pressure;Samples;Min_cycle;Max_cycle;Signal;HPM_P1;HPM_P2
2021/11/27 00:01:04;;;;;;;1.75;0.93;;;;;;;0.20;82.72;98642.41;4967250;29;20031;-75
2021/11/27 00:03:30;;;;;;;0.98;0.57;;;;;;;0.04;83.32;98640.59;4967391;28;20114;-74
2021/11/27 00:05:58;;;;;;;0.60;0.60;;;;;;;0.16;82.43;98630.44;4967279;29;20047;-74
2021/11/27 00:08:24;;;;;;;1.63;1.08;;;;;;;-0.07;83.55;98643.94;4950070;29;20051;-75
2021/11/27 00:10:52;;;;;;;2.03;0.90;;;;;;;0.08;83.10;98632.13;4967338;29;20142;-74
2021/11/27 00:13:19;;;;;;;1.60;0.90;;;;;;;-0.02;83.51;98637.16;4967164;29;20027;-74
2021/11/27 00:15:45;;;;;;;1.20;1.05;;;;;;;0.09;83.21;98637.25;4966782;29;20023;-75
2021/11/27 00:18:11;;;;;;;1.45;0.70;;;;;;;-0.01;83.42;98643.13;4966927;29;20058;-74
2021/11/27 00:20:41;;;;;;;0.70;0.70;;;;;;;-0.04;83.70;98641.41;4966972;29;20027;-74
2021/11/27 00:23:07;;;;;;;1.63;0.73;;;;;;;-0.06;83.97;98653.28;4966689;29;20019;-75
2021/11/27 00:25:33;;;;;;;0.60;0.60;;;;;;;-0.04;83.87;98659.28;4966813;29;20045;-75
2021/11/27 00:27:58;;;;;;;2.90;0.80;;;;;;;0.01;83.11;98604.84;4965688;29;20023;-74
2021/11/27 00:30:27;;;;;;;0.85;0.82;;;;;;;0.09;82.93;98629.59;4966725;29;20034;-74
2021/11/27 00:32:53;;;;;;;2.05;1.45;;;;;;;0.03;83.41;98628.69;4966539;29;20026;-75
2021/11/27 00:35:19;;;;;;;0.95;0.85;;;;;;;0.07;83.32;98621.06;4966831;29;20023;-74
2021/11/27 00:37:45;;;;;;;0.70;0.70;;;;;;;0.11;83.03;98630.41;4967193;29;20024;-75
2021/11/27 00:40:12;;;;;;;0.93;0.70;;;;;;;-0.08;83.50;98624.34;4966728;29;20090;-75
2021/11/27 00:42:37;;;;;;;0.80;0.80;;;;;;;-0.01;83.50;98627.81;4966600;29;20055;-74
2021/11/27 00:45:10;;;;;;;1.50;1.10;;;;;;;0.02;83.57;98660.16;4966734;29;20023;-74
2021/11/27 00:47:39;;;;;;;0.90;0.80;;;;;;;0.11;83.35;98658.50;4966421;29;20215;-74
2021/11/27 00:50:06;;;;;;;0.98;0.85;;;;;;;0.12;83.42;98628.72;4949178;29;20027;-74
2021/11/27 00:52:32;;;;;;;0.63;0.63;;;;;;;0.15;83.50;98648.31;4966365;29;20055;-74
2021/11/27 00:54:58;;;;;;;1.00;0.80;;;;;;;0.16;83.26;98645.75;4966453;29;20027;-73
2021/11/27 00:57:23;;;;;;;1.13;0.70;;;;;;;0.28;82.80;98650.09;4966504;29;20031;-74
2021/11/27 00:59:48;;;;;;;1.20;1.00;;;;;;;0.15;83.40;98653.41;4966174;29;20023;-72
2021/11/27 01:02:14;;;;;;;0.73;0.57;;;;;;;0.15;83.64;98656.81;4966021;29;20031;-74
2021/11/27 01:04:39;;;;;;;0.85;0.73;;;;;;;0.32;83.17;98651.78;4966430;29;20030;-74
2021/11/27 01:07:06;;;;;;;1.77;0.60;;;;;;;0.21;83.03;98649.19;4966126;29;20543;-73
2021/11/27 01:09:33;;;;;;;2.55;0.93;;;;;;;0.25;82.67;98647.53;4964699;29;20050;-74
2021/11/27 01:11:59;;;;;;;1.27;0.63;;;;;;;0.23;82.61;98626.22;4966167;29;20071;-74
2021/11/27 01:14:27;;;;;;;5.43;1.10;;;;;;;0.21;82.85;98659.41;4948476;28;20027;-74
2021/11/27 01:16:57;;;;;;;1.13;0.93;;;;;;;0.07;83.42;98640.59;4965563;29;20086;-74
2021/11/27 01:19:24;;;;;;;0.63;0.63;;;;;;;0.17;83.62;98642.38;4965991;29;20023;-74
2021/11/27 01:21:53;;;;;;;1.83;0.75;;;;;;;0.22;83.30;98648.34;4965921;29;20034;-74
2021/11/27 01:24:20;;;;;;;0.65;0.55;;;;;;;0.21;83.47;98648.31;4965918;29;20051;-75
2021/11/27 01:26:46;;;;;;;1.67;1.02;;;;;;;0.14;83.31;98631.28;4966083;29;20038;-75
2021/11/27 01:29:11;;;;;;;2.33;0.90;;;;;;;0.23;83.19;98642.41;4948494;29;20026;-75
2021/11/27 01:31:37;;;;;;;0.93;0.68;;;;;;;0.29;83.09;98661.16;4964029;29;20019;-75
2021/11/27 01:34:06;;;;;;;2.15;0.65;;;;;;;0.26;83.13;98653.50;4965680;29;20027;-75
2021/11/27 01:36:32;;;;;;;1.33;0.88;;;;;;;0.26;83.29;98645.81;4965633;29;20035;-75
2021/11/27 01:38:58;;;;;;;1.05;0.60;;;;;;;0.33;83.15;98645.88;4965417;29;20341;-73
2021/11/27 01:41:24;;;;;;;1.33;1.00;;;;;;;0.31;82.63;98634.78;4965631;29;20034;-75
2021/11/27 01:43:49;;;;;;;0.55;0.52;;;;;;;0.41;82.80;98645.91;4965384;29;20058;-75
2021/11/27 01:46:15;;;;;;;1.58;0.80;;;;;;;0.27;82.79;98633.06;4965439;29;20050;-74
2021/11/27 01:48:40;;;;;;;1.30;0.70;;;;;;;0.51;81.90;98635.72;4965411;29;20034;-74
2021/11/27 01:51:24;;;;;;;0.60;0.60;;;;;;;0.48;82.13;98649.31;4965499;29;20042;-74
2021/11/27 01:53:59;;;;;;;0.68;0.55;;;;;;;0.60;81.43;98628.09;4965375;29;20027;-74
2021/11/27 01:56:30;;;;;;;0.73;0.70;;;;;;;0.39;81.51;98629.72;4965391;29;20112;-74
2021/11/27 01:58:56;;;;;;;2.13;0.90;;;;;;;0.33;82.92;98640.75;4965243;29;20032;-74
2021/11/27 02:01:27;;;;;;;0.80;0.60;;;;;;;0.32;83.43;98638.19;4965095;29;20031;-74
2021/11/27 02:03:54;;;;;;;1.52;0.80;;;;;;;0.56;82.74;98657.03;4965289;29;20082;-73
2021/11/27 02:06:22;;;;;;;0.93;0.80;;;;;;;0.56;82.21;98631.50;4965444;29;20031;-74
2021/11/27 02:08:49;;;;;;;1.05;0.73;;;;;;;0.59;81.97;98637.44;4964928;28;20129;-75
2021/11/27 02:11:21;;;;;;;1.00;0.80;;;;;;;0.43;82.37;98623.75;4965325;29;20027;-72
2021/11/27 02:13:47;;;;;;;1.08;0.90;;;;;;;0.39;83.11;98622.06;4965177;29;20019;-74
2021/11/27 02:16:13;;;;;;;1.30;0.93;;;;;;;0.44;82.56;98630.59;4964798;29;20086;-74
2021/11/27 02:18:39;;;;;;;2.20;1.00;;;;;;;0.45;83.12;98616.09;4964951;29;20055;-72
2021/11/27 02:21:11;;;;;;;1.70;0.75;;;;;;;0.59;82.02;98644.28;4964867;29;20054;-73
2021/11/27 02:23:38;;;;;;;0.93;0.90;;;;;;;0.49;82.45;98636.56;4964981;29;20030;-74
2021/11/27 02:26:07;;;;;;;0.63;0.63;;;;;;;0.45;83.04;98647.59;4965038;28;20046;-72
2021/11/27 02:28:35;;;;;;;1.35;0.70;;;;;;;0.58;82.43;98637.44;4967984;29;20591;-74
2021/11/27 02:31:01;;;;;;;1.42;0.80;;;;;;;0.47;83.08;98624.63;4968627;29;20023;-74
2021/11/27 02:33:27;;;;;;;1.70;0.60;;;;;;;0.58;83.13;98650.19;4967777;29;20022;-74
2021/11/27 02:35:52;;;;;;;0.65;0.60;;;;;;;0.56;82.96;98636.59;4969004;29;20106;-73
2021/11/27 02:38:18;;;;;;;0.90;0.70;;;;;;;0.57;83.03;98651.94;4968889;29;20023;-73
2021/11/27 02:40:44;;;;;;;0.77;0.65;;;;;;;0.65;82.80;98638.31;4968630;29;20030;-74
2021/11/27 02:43:10;;;;;;;0.80;0.60;;;;;;;0.73;82.73;98636.66;4968663;29;20027;-74
2021/11/27 02:45:35;;;;;;;1.58;0.50;;;;;;;0.66;82.90;98653.66;4968707;29;20082;-75
2021/11/27 02:48:01;;;;;;;2.05;0.63;;;;;;;0.69;82.52;98640.03;4968611;29;20050;-74
2021/11/27 02:50:26;;;;;;;0.82;0.80;;;;;;;0.64;82.81;98647.66;4968424;29;20027;-74
2021/11/27 02:52:52;;;;;;;4.78;0.70;;;;;;;0.71;82.82;98643.44;4968468;29;20027;-73
2021/11/27 02:55:18;;;;;;;0.98;0.80;;;;;;;0.73;82.45;98650.28;4968218;29;20023;-74
2021/11/27 02:57:43;;;;;;;0.85;0.70;;;;;;;0.80;81.96;98632.41;4968602;29;20035;-74
2021/11/27 03:00:13;;;;;;;3.28;0.80;;;;;;;0.71;82.33;98634.09;4968446;29;20090;-74
2021/11/27 03:02:40;;;;;;;2.83;0.70;;;;;;;0.80;81.81;98637.53;4950892;29;20015;-74
2021/11/27 03:05:06;;;;;;;0.65;0.60;;;;;;;0.76;82.06;98641.75;4968473;29;20031;-74
2021/11/27 03:07:32;;;;;;;1.70;0.80;;;;;;;0.81;81.66;98647.75;4968236;29;20490;-74
2021/11/27 03:09:58;;;;;;;1.42;0.75;;;;;;;0.70;82.32;98652.78;4968382;29;20036;-74
2021/11/27 03:12:23;;;;;;;1.98;0.90;;;;;;;0.69;82.57;98652.78;4968500;29;20026;-74
2021/11/27 03:14:49;;;;;;;1.63;0.70;;;;;;;0.57;82.96;98635.75;4968074;29;20051;-74
2021/11/27 03:17:14;;;;;;;1.52;0.80;;;;;;;0.73;82.82;98667.28;4967852;29;20072;-74
2021/11/27 03:19:42;;;;;;;0.88;0.70;;;;;;;0.66;82.69;98645.13;4968072;29;20019;-74
2021/11/27 03:22:09;;;;;;;2.08;0.98;;;;;;;0.70;82.93;98660.47;4967919;29;20027;-74
2021/11/27 03:24:36;;;;;;;2.17;0.77;;;;;;;0.73;82.84;98652.84;4967720;28;20050;-74
2021/11/27 03:27:02;;;;;;;0.80;0.70;;;;;;;0.65;82.99;98649.41;4950848;29;20466;-74
2021/11/27 03:29:28;;;;;;;0.77;0.77;;;;;;;0.65;83.02;98649.41;4967648;29;20036;-73
2021/11/27 03:31:59;;;;;;;0.60;0.60;;;;;;;0.83;81.75;98647.75;4966163;28;20066;-73
2021/11/27 03:34:25;;;;;;;2.78;1.00;;;;;;;0.75;81.93;98650.28;4967531;29;20046;-74
2021/11/27 03:36:50;;;;;;;1.30;0.85;;;;;;;0.70;82.31;98652.78;4967495;29;20050;-73
2021/11/27 03:39:16;;;;;;;0.80;0.60;;;;;;;0.65;82.48;98659.63;4967078;28;20047;-74
2021/11/27 03:41:42;;;;;;;0.95;0.85;;;;;;;0.60;82.78;98651.06;4967655;29;20480;-75
2021/11/27 03:44:07;;;;;;;0.88;0.80;;;;;;;0.57;83.02;98661.28;4982359;28;20027;-73
2021/11/27 03:46:32;;;;;;;0.82;0.60;;;;;;;0.54;83.20;98657.03;4967377;29;20054;-73
2021/11/27 03:48:58;;;;;;;1.60;0.80;;;;;;;0.57;83.13;98664.69;4967687;29;20027;-73
2021/11/27 03:51:28;;;;;;;0.82;0.70;;;;;;;0.51;83.49;98658.69;4967523;29;20051;-73
2021/11/27 03:53:54;;;;;;;0.70;0.60;;;;;;;0.42;83.47;98656.94;4966070;29;20027;-73
2021/11/27 03:56:25;;;;;;;1.92;1.00;;;;;;;0.48;83.56;98670.59;4967338;29;20034;-73
2021/11/27 03:58:50;;;;;;;2.30;1.10;;;;;;;0.46;83.58;98658.69;4967308;29;20051;-73
2021/11/27 04:01:18;;;;;;;1.48;0.80;;;;;;;0.51;83.35;98664.66;4966943;29;20023;-73
2021/11/27 04:03:46;;;;;;;1.23;1.02;;;;;;;0.58;83.18;98673.19;4967303;29;20025;-73
2021/11/27 04:06:12;;;;;;;1.08;0.80;;;;;;;0.49;83.67;98679.97;4967284;29;20023;-73
2021/11/27 04:08:37;;;;;;;4.97;2.05;;;;;;;0.41;83.76;98666.31;4967154;29;20042;-73
2021/11/27 04:11:03;;;;;;;0.88;0.70;;;;;;;0.53;83.60;98688.50;4967046;29;20038;-73
2021/11/27 04:13:28;;;;;;;1.70;0.88;;;;;;;0.48;83.85;98677.41;4967095;29;20031;-73
2021/11/27 04:15:53;;;;;;;3.42;0.90;;;;;;;0.49;83.82;98679.13;4966570;29;20023;-73
2021/11/27 04:18:19;;;;;;;0.73;0.70;;;;;;;0.39;83.97;98664.59;4966824;29;20126;-73
2021/11/27 04:20:45;;;;;;;1.13;0.88;;;;;;;0.52;83.79;98678.28;4949571;29;20034;-73
2021/11/27 04:23:13;;;;;;;1.35;0.98;;;;;;;0.54;83.70;98686.81;4966740;29;20106;-73
2021/11/27 04:25:39;;;;;;;0.85;0.82;;;;;;;0.45;84.19;98693.56;4966848;29;20050;-73
2021/11/27 04:28:05;;;;;;;1.13;0.90;;;;;;;0.47;84.25;98686.78;4966787;29;20027;-74
2021/11/27 04:30:32;;;;;;;1.40;1.00;;;;;;;0.45;84.30;98685.03;4967051;29;20031;-73
2021/11/27 04:32:58;;;;;;;0.80;0.80;;;;;;;0.46;84.11;98691.88;4966638;29;20019;-74
2021/11/27 04:35:25;;;;;;;1.00;0.90;;;;;;;0.37;84.15;98669.69;4966772;29;20475;-74
2021/11/27 04:37:51;;;;;;;1.17;0.80;;;;;;;0.44;84.25;98691.88;4966810;29;20031;-73
2021/11/27 04:40:16;;;;;;;3.67;1.10;;;;;;;0.45;84.38;98692.69;4966706;29;20091;-73
2021/11/27 04:42:42;;;;;;;1.15;0.98;;;;;;;0.45;84.25;98691.00;4965287;29;20027;-74
2021/11/27 04:45:08;;;;;;;1.23;0.80;;;;;;;0.47;84.17;98694.44;4966627;29;20031;-74
2021/11/27 04:47:34;;;;;;;2.25;1.83;;;;;;;0.55;83.96;98697.03;4966377;29;20031;-74
2021/11/27 04:50:00;;;;;;;1.27;0.93;;;;;;;0.55;83.77;98704.69;4965547;28;20027;-74
2021/11/27 04:52:25;;;;;;;2.40;1.13;;;;;;;0.49;84.17;98699.56;4966569;29;20023;-74
2021/11/27 04:54:52;;;;;;;1.08;0.85;;;;;;;0.47;84.13;98689.34;4966285;29;20023;-74
2021/11/27 04:57:18;;;;;;;1.98;0.90;;;;;;;0.57;83.91;98695.34;4966385;29;20060;-74
2021/11/27 04:59:44;;;;;;;1.67;0.93;;;;;;;0.60;84.02;98707.25;4966307;29;20038;-72
2021/11/27 05:02:10;;;;;;;2.05;0.70;;;;;;;0.62;83.88;98703.03;4966072;29;20058;-74
2021/11/27 05:04:36;;;;;;;1.58;0.90;;;;;;;0.53;84.21;98710.63;4966143;29;20104;-74
2021/11/27 05:07:01;;;;;;;1.35;0.93;;;;;;;0.57;84.11;98702.13;4966297;29;20222;-74
2021/11/27 05:09:26;;;;;;;3.08;1.08;;;;;;;0.58;84.36;98714.03;4966094;29;20035;-74
2021/11/27 05:11:52;;;;;;;1.20;1.05;;;;;;;0.64;84.11;98724.28;4966459;29;20488;-75
2021/11/27 05:14:17;;;;;;;1.00;0.75;;;;;;;0.63;83.93;98712.38;4966322;29;20374;-72
2021/11/27 05:16:43;;;;;;;2.20;1.00;;;;;;;0.64;83.98;98721.75;4965780;29;20516;-73
2021/11/27 05:19:08;;;;;;;1.17;1.00;;;;;;;0.53;84.09;98708.09;4966066;29;20098;-73
2021/11/27 05:21:34;;;;;;;3.42;1.10;;;;;;;0.61;84.00;98717.47;4965778;29;20031;-74
2021/11/27 05:23:59;;;;;;;1.98;0.90;;;;;;;0.58;84.35;98714.03;4965940;29;20102;-74
2021/11/27 05:26:25;;;;;;;2.85;1.23;;;;;;;0.58;83.52;98708.94;4948634;29;20093;-73
2021/11/27 05:28:50;;;;;;;1.75;0.90;;;;;;;0.53;84.21;98715.75;4964676;29;20023;-74
2021/11/27 05:31:17;;;;;;;1.50;1.10;;;;;;;0.59;84.20;98729.38;4965496;29;20027;-73
2021/11/27 05:36:13;;;;;;;1.77;1.10;;;;;;;0.57;84.47;98731.09;4965752;29;20031;-74
2021/11/27 05:38:38;;;;;;;1.92;1.00;;;;;;;0.51;84.50;98720.00;4965683;28;20022;-74
2021/11/27 05:41:06;;;;;;;1.25;1.00;;;;;;;0.52;84.57;98716.56;4965607;29;20028;-74
2021/11/27 05:43:32;;;;;;;2.78;1.40;;;;;;;0.58;84.47;98719.16;4965549;29;20028;-74
2021/11/27 05:45:58;;;;;;;2.05;1.00;;;;;;;0.49;84.64;98713.19;4965181;29;20126;-74
2021/11/27 05:48:23;;;;;;;2.92;1.10;;;;;;;0.56;84.80;98721.69;4965622;29;20519;-74
2021/11/27 05:50:48;;;;;;;1.40;1.00;;;;;;;0.54;84.94;98725.09;4965372;29;20033;-73
2021/11/27 05:53:17;;;;;;;2.15;1.10;;;;;;;0.46;85.11;98722.50;4947974;29;20050;-74
2021/11/27 05:55:46;;;;;;;1.65;1.20;;;;;;;0.51;85.06;98737.84;4965595;29;20086;-73
2021/11/27 05:58:11;;;;;;;2.03;1.20;;;;;;;0.58;84.90;98749.81;4965412;29;20027;-74
2021/11/27 06:00:37;;;;;;;2.75;0.95;;;;;;;0.52;84.99;98744.66;4965329;28;20066;-74
2021/11/27 06:03:02;;;;;;;1.25;1.02;;;;;;;0.46;85.10;98732.72;4964883;29;20142;-73
2021/11/27 06:05:29;;;;;;;4.82;1.63;;;;;;;0.56;84.96;98731.09;4965209;29;20031;-73
2021/11/27 06:07:55;;;;;;;1.80;1.05;;;;;;;0.53;85.07;98749.78;4965359;29;20038;-73
2021/11/27 06:10:21;;;;;;;2.90;1.35;;;;;;;0.53;84.93;98744.66;4979870;28;20031;-73
2021/11/27 06:12:46;;;;;;;1.75;1.25;;;;;;;0.47;85.03;98742.94;4965343;29;20050;-75
2021/11/27 06:15:12;;;;;;;3.97;1.48;;;;;;;0.43;85.20;98743.75;4964975;29;20037;-74
2021/11/27 06:17:37;;;;;;;3.42;1.98;;;;;;;0.39;84.96;98743.72;4947422;29;20039;-74
2021/11/27 06:20:03;;;;;;;3.90;2.03;;;;;;;0.41;85.18;98750.56;4964887;29;20502;-73
2021/11/27 06:22:29;;;;;;;4.10;2.08;;;;;;;0.38;85.23;98745.44;4964782;29;20042;-73
2021/11/27 06:24:54;;;;;;;2.42;1.67;;;;;;;0.34;85.04;98746.25;4964861;29;20020;-75
2021/11/27 06:27:20;;;;;;;5.28;2.15;;;;;;;0.24;85.14;98746.19;4965087;29;20030;-74
2021/11/27 06:29:45;;;;;;;2.53;1.92;;;;;;;0.23;85.17;98749.59;4964943;29;20046;-72
2021/11/27 06:32:11;;;;;;;6.55;2.03;;;;;;;0.20;85.17;98754.69;4964843;29;20019;-72
2021/11/27 06:34:39;;;;;;;4.20;1.60;;;;;;;0.21;84.78;98764.06;4979745;28;20050;-73
2021/11/27 06:37:04;;;;;;;4.85;1.85;;;;;;;0.18;84.78;98765.72;4965056;29;20027;-73
2021/11/27 06:39:29;;;;;;;5.75;2.58;;;;;;;0.08;85.11;98765.66;4964696;29;20025;-73
2021/11/27 06:41:56;;;;;;;2.30;1.60;;;;;;;0.06;85.20;98766.50;4964909;29;20107;-74
2021/11/27 06:44:22;;;;;;;4.63;2.22;;;;;;;0.03;85.19;98769.03;4964879;29;20054;-71
2021/11/27 06:46:47;;;;;;;3.88;1.88;;;;;;;0.02;85.36;98764.78;4964483;29;20492;-73
2021/11/27 06:49:14;;;;;;;2.70;1.98;;;;;;;-0.08;85.33;98748.53;4965106;29;20023;-73
2021/11/27 06:51:40;;;;;;;5.60;2.90;;;;;;;-0.07;85.52;98758.75;4964739;29;20029;-71
2021/11/27 06:54:05;;;;;;;3.58;1.88;;;;;;;-0.12;85.52;98765.50;4947268;29;20050;-72
2021/11/27 06:56:30;;;;;;;3.13;2.00;;;;;;;-0.13;85.57;98764.63;4964807;29;20027;-71
2021/11/27 06:58:56;;;;;;;4.85;1.90;;;;;;;-0.10;85.45;98771.47;4964786;29;20030;-72
2021/11/27 07:01:21;;;;;;;3.78;2.40;;;;;;;-0.24;85.40;98752.66;4964477;29;20031;-71
2021/11/27 07:03:46;;;;;;;4.63;1.85;;;;;;;-0.10;85.16;98776.59;4964765;29;20472;-70
2021/11/27 07:06:12;;;;;;;6.00;1.77;;;;;;;-0.16;85.36;98781.63;4964658;29;20384;-71
2021/11/27 07:08:37;;;;;;;3.55;2.28;;;;;;;-0.22;85.39;98761.19;4964604;29;20031;-71
2021/11/27 07:11:02;;;;;;;3.55;2.13;;;;;;;-0.15;85.27;98773.13;4963295;29;20038;-71
2021/11/27 07:13:28;;;;;;;2.53;2.03;;;;;;;-0.26;85.37;98780.69;4948366;29;20047;-71
2021/11/27 07:15:53;;;;;;;1.25;1.13;;;;;;;-0.27;85.33;98772.16;4968057;29;20436;-72
2021/11/27 07:18:19;;;;;;;3.53;2.30;;;;;;;-0.23;85.55;98769.66;4967806;29;20257;-72
2021/11/27 07:20:44;;;;;;;2.17;1.60;;;;;;;-0.19;85.42;98776.50;4967876;29;20030;-70
2021/11/27 07:23:10;;;;;;;3.60;1.73;;;;;;;-0.19;85.48;98789.25;4982886;28;20027;-71
2021/11/27 07:25:37;;;;;;;5.32;1.92;;;;;;;-0.21;85.42;98778.19;4966692;29;20361;-71
2021/11/27 07:28:04;;;;;;;4.50;1.70;;;;;;;-0.24;85.61;98773.91;4967750;29;20027;-71
2021/11/27 07:30:29;;;;;;;1.80;1.35;;;;;;;-0.23;85.53;98775.63;4967882;29;20019;-70
2021/11/27 07:32:55;;;;;;;5.68;2.88;;;;;;;-0.39;85.66;98759.31;4967666;29;20054;-71
2021/11/27 07:35:20;;;;;;;6.90;2.60;;;;;;;-0.22;85.82;98786.69;4967801;29;20039;-71
2021/11/27 07:37:45;;;;;;;2.50;1.95;;;;;;;-0.31;85.57;98765.34;4966293;29;20074;-71
2021/11/27 07:40:11;;;;;;;5.18;3.15;;;;;;;-0.22;85.55;98776.47;4967805;29;20031;-71
2021/11/27 07:42:38;;;;;;;4.00;2.00;;;;;;;-0.32;85.71;98771.28;4967732;29;20027;-72
2021/11/27 07:45:04;;;;;;;4.35;2.25;;;;;;;-0.31;85.83;98767.91;4967484;29;20031;-72
2021/11/27 07:47:29;;;;;;;7.15;2.30;;;;;;;-0.22;85.77;98781.59;4967579;29;20159;-72
2021/11/27 07:49:55;;;;;;;5.65;1.60;;;;;;;-0.18;85.63;98778.22;4967552;29;20617;-73
2021/11/27 07:52:22;;;;;;;3.05;2.05;;;;;;;-0.30;85.89;98773.84;4967292;29;20023;-72
2021/11/27 07:54:49;;;;;;;2.83;2.38;;;;;;;-0.24;86.16;98783.25;4982224;28;20027;-72
2021/11/27 07:57:15;;;;;;;3.22;1.80;;;;;;;-0.19;85.58;98781.59;4966097;29;20102;-71
2021/11/27 07:59:40;;;;;;;4.68;3.13;;;;;;;-0.31;85.84;98783.19;4967299;29;20054;-73
2021/11/27 08:02:06;;;;;;;4.50;2.55;;;;;;;-0.28;85.88;98782.34;4967114;29;20031;-73
2021/11/27 08:04:31;;;;;;;5.03;2.15;;;;;;;-0.24;85.99;98798.56;4967389;29;20027;-73
2021/11/27 08:06:56;;;;;;;4.00;2.20;;;;;;;-0.18;85.83;98808.81;4967223;29;20031;-71
2021/11/27 08:09:22;;;;;;;2.30;1.65;;;;;;;-0.18;85.81;98813.91;4967288;29;20027;-71
2021/11/27 08:11:47;;;;;;;2.70;1.75;;;;;;;-0.24;86.03;98796.00;4967126;29;20046;-72
2021/11/27 08:14:13;;;;;;;3.83;2.17;;;;;;;-0.27;86.08;98795.13;4967157;29;20480;-72
2021/11/27 08:16:38;;;;;;;3.65;1.88;;;;;;;-0.14;85.83;98810.53;4966838;29;20051;-71
2021/11/27 08:19:03;;;;;;;6.03;2.42;;;;;;;-0.13;85.93;98809.72;4981924;28;20043;-72
2021/11/27 08:21:29;;;;;;;4.75;2.67;;;;;;;-0.12;86.04;98811.41;4967247;29;20027;-71
2021/11/27 08:23:55;;;;;;;3.70;2.20;;;;;;;-0.21;86.17;98791.78;4967077;28;20027;-72
2021/11/27 08:26:21;;;;;;;3.35;2.60;;;;;;;-0.10;86.04;98814.84;4967075;29;20034;-71
2021/11/27 08:28:47;;;;;;;4.82;3.00;;;;;;;-0.06;86.02;98821.69;4966955;29;20032;-72
2021/11/27 08:31:13;;;;;;;3.47;2.33;;;;;;;-0.05;86.01;98817.44;4981340;28;20037;-71
2021/11/27 08:33:38;;;;;;;2.17;1.70;;;;;;;-0.02;85.70;98820.84;4966721;29;20106;-72
2021/11/27 08:36:04;;;;;;;5.70;2.78;;;;;;;-0.06;85.97;98820.81;4966748;29;20112;-72
2021/11/27 08:38:30;;;;;;;7.13;2.80;;;;;;;-0.06;85.98;98818.25;4966738;29;20426;-72
2021/11/27 08:40:56;;;;;;;4.43;2.47;;;;;;;0.01;85.80;98819.19;4966454;29;20102;-71
2021/11/27 08:43:21;;;;;;;4.30;2.88;;;;;;;-0.01;85.97;98821.72;4966671;29;20083;-72
2021/11/27 08:45:49;;;;;;;2.38;1.63;;;;;;;0.03;85.90;98812.41;4966545;29;20019;-72
2021/11/27 08:48:14;;;;;;;4.22;2.58;;;;;;;0.02;86.00;98806.44;4966505;29;20090;-71
2021/11/27 08:50:40;;;;;;;9.65;2.75;;;;;;;-0.02;85.96;98800.44;4966552;29;20027;-71
2021/11/27 08:53:05;;;;;;;5.63;2.80;;;;;;;0.07;86.22;98815.00;4966623;29;20019;-74
2021/11/27 08:55:30;;;;;;;4.63;2.50;;;;;;;0.13;85.97;98818.44;4966104;29;20480;-71
2021/11/27 08:57:56;;;;;;;7.13;2.20;;;;;;;0.15;85.92;98816.75;4966234;29;20034;-72
2021/11/27 09:00:21;;;;;;;5.65;2.85;;;;;;;0.05;86.07;98814.13;4966077;29;20424;-72
2021/11/27 09:02:47;;;;;;;6.50;2.88;;;;;;;0.08;86.18;98815.84;4948733;29;20508;-72
2021/11/27 09:05:13;;;;;;;5.32;2.50;;;;;;;0.20;85.97;98827.84;4949000;29;20667;-72
2021/11/27 09:07:39;;;;;;;3.30;1.88;;;;;;;0.22;86.03;98821.91;4980996;28;20042;-72
2021/11/27 09:10:05;;;;;;;4.82;3.15;;;;;;;0.14;85.83;98798.03;4966068;29;20033;-72
2021/11/27 09:12:31;;;;;;;3.67;2.28;;;;;;;0.30;85.58;98827.09;4965840;29;20027;-72
2021/11/27 09:14:56;;;;;;;3.20;2.42;;;;;;;0.30;85.83;98827.09;4965888;29;20343;-72
2021/11/27 09:17:22;;;;;;;1.77;1.38;;;;;;;0.33;85.72;98826.25;4965628;29;20053;-72
2021/11/27 09:19:47;;;;;;;3.25;2.28;;;;;;;0.36;85.54;98827.16;4948443;29;20552;-72
2021/11/27 09:22:13;;;;;;;1.98;1.67;;;;;;;0.36;85.89;98831.38;4966110;29;20042;-73
2021/11/27 09:24:38;;;;;;;3.90;1.98;;;;;;;0.40;85.39;98825.44;4965781;29;20393;-74
2021/11/27 09:27:04;;;;;;;2.67;2.05;;;;;;;0.45;85.17;98828.91;4966072;29;20023;-71
2021/11/27 09:29:31;;;;;;;4.75;2.38;;;;;;;0.45;85.42;98836.56;4965661;29;20023;-74
2021/11/27 09:31:58;;;;;;;6.07;2.38;;;;;;;0.39;85.40;98813.53;4965328;29;20055;-73
2021/11/27 09:34:23;;;;;;;3.53;2.08;;;;;;;0.44;85.69;98839.09;4965555;29;20045;-72
2021/11/27 09:36:49;;;;;;;3.22;2.42;;;;;;;0.44;85.51;98832.31;4965075;28;20054;-71
2021/11/27 09:39:16;;;;;;;3.40;2.65;;;;;;;0.32;85.51;98819.44;4965547;29;20023;-72
2021/11/27 09:41:44;;;;;;;1.75;1.60;;;;;;;0.35;85.66;98839.91;4948143;29;20539;-71
2021/11/27 09:44:12;;;;;;;4.65;3.00;;;;;;;0.28;86.18;98843.22;4965867;29;20035;-74
2021/11/27 09:46:41;;;;;;;4.47;1.90;;;;;;;0.24;86.20;98833.00;4965071;29;20027;-74
2021/11/27 09:49:09;;;;;;;5.45;2.47;;;;;;;0.32;86.02;98834.78;4965463;29;20019;-73
2021/11/27 09:51:36;;;;;;;4.15;2.42;;;;;;;0.23;86.43;98846.59;4947839;29;20448;-74
2021/11/27 09:54:05;;;;;;;8.43;2.58;;;;;;;0.20;86.61;98838.94;4965268;29;20027;-74
2021/11/27 09:56:31;;;;;;;4.20;2.67;;;;;;;0.11;86.72;98838.84;4979853;28;20034;-72
2021/11/27 09:58:57;;;;;;;4.22;2.33;;;;;;;0.04;87.25;98844.72;4965302;29;20034;-72
2021/11/27 10:01:29;;;;;;;4.00;2.08;;;;;;;-0.04;87.43;98824.25;4965178;29;20031;-71
2021/11/27 10:04:05;;;;;;;4.13;2.28;;;;;;;-0.03;87.53;98849.78;4965467;29;20058;-70
2021/11/27 10:06:34;;;;;;;10.13;3.67;;;;;;;-0.09;87.93;98839.50;4965526;29;20103;-71
2021/11/27 10:09:02;;;;;;;8.80;3.28;;;;;;;-0.10;88.07;98844.59;4965386;29;20023;-69
2021/11/27 10:11:27;;;;;;;7.63;3.65;;;;;;;-0.18;88.29;98831.78;4965068;29;20551;-70
2021/11/27 10:13:53;;;;;;;5.90;2.95;;;;;;;-0.15;88.55;98839.47;4964956;29;20031;-69
2021/11/27 10:16:19;;;;;;;3.38;2.35;;;;;;;-0.16;88.58;98832.66;4964655;29;20427;-71
2021/11/27 10:19:03;;;;;;;2.65;2.08;;;;;;;-0.16;88.96;98828.38;4965062;29;20103;-69
2021/11/27 10:21:28;;;;;;;6.72;3.58;;;;;;;-0.20;89.20;98824.09;4964718;29;20023;-68
2021/11/27 10:23:54;;;;;;;13.18;3.42;;;;;;;-0.05;89.01;98831.03;4965000;29;20498;-69
2021/11/27 10:26:39;;;;;;;4.60;2.50;;;;;;;-0.06;89.37;98824.22;4947555;29;20023;-69
2021/11/27 10:29:19;;;;;;;5.50;4.78;;;;;;;0.02;89.21;98826.00;4964805;29;20070;-71
2021/11/27 10:31:47;;;;;;;4.88;2.38;;;;;;;-0.05;89.17;98810.63;4964912;29;20023;-72
2021/11/27 10:34:23;;;;;;;3.58;2.55;;;;;;;-0.01;89.40;98820.03;4965170;29;20077;-74
2021/11/27 10:36:50;;;;;;;4.90;2.60;;;;;;;-0.07;89.80;98802.13;4947845;29;20087;-73
2021/11/27 10:39:16;;;;;;;4.65;2.92;;;;;;;0.03;89.84;98823.47;4965002;29;20082;-74
2021/11/27 10:41:56;;;;;;;5.70;2.50;;;;;;;0.06;89.71;98825.19;4963517;29;20035;-73
2021/11/27 10:44:40;;;;;;;4.68;2.45;;;;;;;0.09;89.99;98825.22;4963586;29;20035;-75
2021/11/27 10:47:15;;;;;;;8.38;4.00;;;;;;;0.06;90.06;98820.09;4964639;28;20167;-75
2021/11/27 10:49:42;;;;;;;4.28;2.33;;;;;;;0.06;89.59;98812.44;4982682;28;20052;-72
2021/11/27 10:52:14;;;;;;;5.68;2.83;;;;;;;0.08;89.59;98810.75;4968728;29;20023;-74
2021/11/27 10:54:54;;;;;;;4.63;2.83;;;;;;;0.05;90.06;98823.50;4968644;29;20047;-71
2021/11/27 10:57:32;;;;;;;8.73;3.20;;;;;;;0.07;90.00;98816.69;4968529;29;20551;-74
2021/11/27 11:00:01;;;;;;;5.35;2.88;;;;;;;0.03;90.06;98822.59;4983401;28;20046;-74
2021/11/27 11:02:29;;;;;;;4.32;2.63;;;;;;;0.03;90.25;98822.59;4950878;29;20031;-71
2021/11/27 11:05:14;;;;;;;3.70;1.95;;;;;;;0.02;90.35;98833.66;4968356;29;20078;-71
2021/11/27 11:07:40;;;;;;;3.22;2.10;;;;;;;0.02;90.03;98815.81;4968508;29;20019;-73
2021/11/27 11:10:19;;;;;;;3.90;1.95;;;;;;;0.02;90.34;98820.91;4968330;29;20038;-72
2021/11/27 11:12:45;;;;;;;5.57;2.55;;;;;;;-0.01;90.46;98817.47;4950843;29;20031;-74
2021/11/27 11:15:15;;;;;;;3.15;2.85;;;;;;;0.05;90.35;98823.50;4966711;29;20042;-73
2021/11/27 11:17:41;;;;;;;6.10;2.95;;;;;;;0.06;90.26;98818.41;4967881;29;20054;-73
2021/11/27 11:20:18;;;;;;;4.35;1.98;;;;;;;0.02;90.35;98816.63;4967905;29;20031;-71
2021/11/27 11:22:59;;;;;;;5.45;2.10;;;;;;;0.03;90.21;98810.72;4967833;29;20020;-73
2021/11/27 11:25:26;;;;;;;5.18;3.00;;;;;;;0.09;89.88;98823.53;4968049;29;20027;-71
2021/11/27 11:27:51;;;;;;;7.78;2.70;;;;;;;0.04;90.18;98803.91;4968048;29;20035;-70
2021/11/27 11:30:23;;;;;;;6.50;2.40;;;;;;;0.05;90.45;98805.63;4982730;28;20104;-70
2021/11/27 11:32:49;;;;;;;;;;;;;;;0.12;90.16;98809.94;4968168;29;20110;-70
2021/11/27 11:35:15;;;;;;;6.60;2.78;;;;;;;0.06;90.15;98813.28;4967867;29;19932;-70
2021/11/27 11:37:41;;;;;;;4.38;2.40;;;;;;;0.09;90.57;98809.91;4967780;29;20486;-71
2021/11/27 11:40:07;;;;;;;4.05;2.40;;;;;;;0.09;90.34;98822.66;4967645;29;20094;-69